Time;durP1;ratioP1;P1;durP2;ratioP2;P2;SDS_P1;SDS_P2;PMS_P1;PMS_P2;Temp;Humidity;BMP_temperature;BMP_pressure;BME280_temperature;BME280_humidity;BME280_pressure;Samples;Min_cycle;Max_cycle;Signal;HPM_P1;HPM_P2
2023/06/15 00:01:49;;;;;;;3.80;1.73;;;;;;;18.15;57.47;101815.25;5129464;27;20028;-37
2023/06/15 00:04:15;;;;;;;3.17;1.50;;;;;;;18.10;57.92;101828.88;5129655;27;20024;-37
2023/06/15 00:06:40;;;;;;;3.53;1.70;;;;;;;18.07;58.27;101825.88;5130363;27;20160;-37
2023/06/15 00:09:06;;;;;;;3.70;1.42;;;;;;;18.01;58.38;101825.00;5129366;28;20038;-37
2023/06/15 00:11:31;;;;;;;3.08;1.88;;;;;;;18.00;58.60;101820.56;5119795;28;20032;-37
2023/06/15 00:13:57;;;;;;;2.25;1.83;;;;;;;17.95;58.83;101821.34;5114527;28;20040;-37
2023/06/15 00:16:22;;;;;;;;;;;;;;;18.20;56.30;101826.28;5116516;28;20112;-37
2023/06/15 00:18:48;;;;;;;2.25;1.60;;;;;;;17.96;57.72;101819.47;5116192;28;20336;-37
2023/06/15 00:21:16;;;;;;;2.17;1.67;;;;;;;17.92;58.36;101816.41;5116182;28;20051;-38
2023/06/15 00:23:44;;;;;;;2.25;1.52;;;;;;;17.84;60.50;101818.75;5115716;28;20392;-37
2023/06/15 00:26:10;;;;;;;4.45;1.65;;;;;;;17.75;59.01;101813.72;5115892;28;20030;-37
2023/06/15 00:28:35;;;;;;;3.83;1.60;;;;;;;17.92;58.31;101819.13;5115671;28;20023;-37
2023/06/15 00:31:01;;;;;;;2.47;1.60;;;;;;;17.85;59.43;101831.34;5116569;28;20024;-36
2023/06/15 00:33:26;;;;;;;3.65;1.77;;;;;;;17.69;60.94;101836.59;5115482;28;20128;-37
2023/06/15 00:35:51;;;;;;;;;;;;;;;17.97;57.46;101835.63;5116207;28;20035;-37
2023/06/15 00:38:17;;;;;;;3.47;1.88;;;;;;;17.70;59.83;101834.69;5115522;28;19908;-37
2023/06/15 00:40:42;;;;;;;2.15;1.65;;;;;;;17.71;60.03;101842.66;5115671;28;20111;-37
2023/06/15 00:43:07;;;;;;;;;;;;;;;17.91;56.93;101841.25;5116069;28;20027;-37
2023/06/15 00:45:33;;;;;;;2.83;1.93;;;;;;;17.62;60.38;101833.25;5115546;28;19933;-37
2023/06/15 00:47:58;;;;;;;;;;;;;;;17.86;57.37;101838.47;5116175;28;20759;-36
2023/06/15 00:50:25;;;;;;;3.65;1.63;;;;;;;17.65;60.33;101837.38;5116205;28;19998;-36
2023/06/15 00:52:51;;;;;;;3.45;1.70;;;;;;;17.53;61.04;101840.25;5115055;28;20034;-37
2023/06/15 00:55:17;;;;;;;3.80;1.70;;;;;;;17.51;60.65;101837.72;5115333;28;20055;-36
2023/06/15 00:57:44;;;;;;;3.72;1.80;;;;;;;17.49;60.57;101847.28;5115633;28;20079;-37
2023/06/15 01:00:15;;;;;;;4.28;2.00;;;;;;;17.45;60.97;101843.41;5115221;28;20401;-37
2023/06/15 01:02:41;;;;;;;3.63;1.65;;;;;;;17.35;61.29;101837.78;5115430;28;20050;-37
2023/06/15 01:05:10;;;;;;;5.63;1.88;;;;;;;17.32;61.61;101841.03;5115255;28;20511;-37
2023/06/15 01:07:40;;;;;;;3.45;1.75;;;;;;;17.46;61.39;101834.94;5115522;28;20028;-37
2023/06/15 01:10:07;;;;;;;7.03;2.00;;;;;;;17.35;61.81;101840.53;5115688;28;20037;-37
2023/06/15 01:12:33;;;;;;;4.60;1.90;;;;;;;17.26;62.23;101834.66;5115114;28;20511;-37
2023/06/15 01:14:59;;;;;;;3.53;1.88;;;;;;;17.25;61.89;101822.91;5114516;28;20110;-37
2023/06/15 01:17:25;;;;;;;;;;;;;;;17.53;59.47;101840.25;5115081;28;20390;-37
2023/06/15 01:19:57;;;;;;;1.92;1.50;;;;;;;17.38;61.65;101840.03;5114263;28;20340;-37
2023/06/15 01:22:35;;;;;;;3.30;1.90;;;;;;;17.23;61.64;101843.38;5114030;28;20031;-37
2023/06/15 01:25:26;;;;;;;2.20;1.73;;;;;;;17.21;61.88;101840.88;5114993;28;20134;-37
2023/06/15 01:27:58;;;;;;;3.05;2.10;;;;;;;17.14;63.19;101851.16;5114878;28;20429;-37
2023/06/15 01:30:25;;;;;;;3.72;1.90;;;;;;;17.12;63.47;101853.31;5115087;28;20028;-37
2023/06/15 01:32:51;;;;;;;4.13;2.00;;;;;;;17.14;63.19;101853.91;5114869;28;20102;-37
2023/06/15 01:35:16;;;;;;;3.70;1.92;;;;;;;17.10;63.05;101852.75;5114236;28;20103;-37
2023/06/15 01:37:41;;;;;;;2.90;2.38;;;;;;;17.11;63.30;101850.84;5114731;28;20427;-36
2023/06/15 01:40:07;;;;;;;;;;;;;;;17.31;60.45;101855.78;5114867;28;20047;-36
2023/06/15 01:42:33;;;;;;;3.60;1.75;;;;;;;17.09;63.49;101848.38;5114752;28;20303;-36
2023/06/15 01:44:59;;;;;;;;;;;;;;;17.36;60.05;101861.31;5114567;28;20091;-37
2023/06/15 01:47:24;;;;;;;2.85;1.90;;;;;;;17.10;63.92;101863.69;5113750;28;19912;-37
2023/06/15 01:49:50;;;;;;;4.10;2.22;;;;;;;17.04;63.31;101844.72;5114023;28;20080;-36
2023/06/15 01:52:16;;;;;;;;;;;;;;;17.27;60.91;101858.16;5114382;28;20122;-37
2023/06/15 01:54:41;;;;;;;2.45;1.90;;;;;;;16.98;63.96;101841.06;5113665;28;19947;-36
2023/06/15 01:57:06;;;;;;;;;;;;;;;17.24;60.49;101861.44;5114743;28;20098;-36
2023/06/15 01:59:32;;;;;;;4.10;2.15;;;;;;;16.98;63.56;101855.59;5113774;28;19939;-36
2023/06/15 02:01:57;;;;;;;;;;;;;;;17.22;60.40;101856.19;5113962;28;20062;-36
2023/06/15 02:04:22;;;;;;;2.22;1.80;;;;;;;17.01;63.65;101848.78;5114146;28;19912;-36
2023/06/15 02:06:48;;;;;;;;;;;;;;;17.19;60.49;101847.69;5114377;28;20107;-37
2023/06/15 02:09:13;;;;;;;5.53;1.90;;;;;;;17.08;63.54;101852.19;5113706;28;19911;-37
2023/06/15 02:11:38;;;;;;;;;;;;;;;17.15;61.80;101855.56;5113779;28;20744;-37
2023/06/15 02:14:05;;;;;;;3.22;2.03;;;;;;;17.01;64.15;101847.94;5113809;28;19912;-37
2023/06/15 02:16:32;;;;;;;4.80;2.33;;;;;;;17.02;64.08;101849.59;5113709;28;20024;-37
2023/06/15 02:19:00;;;;;;;4.97;2.42;;;;;;;16.90;65.06;101852.44;5113533;28;20114;-37
2023/06/15 02:21:25;;;;;;;4.75;2.20;;;;;;;16.78;65.82;101849.75;5113837;28;20024;-37
2023/06/15 02:23:51;;;;;;;3.42;2.30;;;;;;;16.86;64.89;101856.72;5113999;28;20431;-36
2023/06/15 02:26:17;;;;;;;3.28;2.15;;;;;;;16.76;64.96;101859.28;5113617;28;20372;-37
2023/06/15 02:28:42;;;;;;;3.53;2.35;;;;;;;16.69;65.57;101852.06;5112994;28;20035;-37
2023/06/15 02:31:07;;;;;;;;;;;;;;;16.97;62.88;101864.00;5113719;28;20033;-36
2023/06/15 02:33:33;;;;;;;2.92;2.30;;;;;;;16.77;65.42;101860.94;5113030;28;20008;-36
2023/06/15 02:35:58;;;;;;;;;;;;;;;16.94;62.26;101869.97;5114046;28;20035;-36
2023/06/15 02:38:24;;;;;;;2.85;2.25;;;;;;;16.76;65.41;101870.22;5113180;28;19991;-37
2023/06/15 02:40:51;;;;;;;;;;;;;;;16.89;63.00;101872.63;5113737;28;20473;-36
2023/06/15 02:43:16;;;;;;;4.53;2.50;;;;;;;16.67;65.88;101867.84;5113096;28;20010;-36
2023/06/15 02:45:42;;;;;;;;;;;;;;;16.86;62.79;101873.94;5113718;28;20062;-36
2023/06/15 02:48:08;;;;;;;4.30;2.47;;;;;;;16.70;65.47;101874.75;5113813;28;19911;-37
2023/06/15 02:50:33;;;;;;;4.00;2.20;;;;;;;16.69;66.12;101873.09;5113772;28;20028;-36
2023/06/15 02:52:59;;;;;;;;;;;;;;;16.85;63.04;101877.75;5113205;28;20391;-37
2023/06/15 02:55:25;;;;;;;5.97;2.50;;;;;;;16.65;66.13;101872.75;5112973;28;20355;-37
2023/06/15 02:57:51;;;;;;;3.30;2.42;;;;;;;16.66;66.51;101874.41;5113388;28;20104;-36
2023/06/15 03:00:17;;;;;;;5.68;2.83;;;;;;;16.62;66.16;101870.50;5113117;28;20059;-36
2023/06/15 03:02:44;;;;;;;;;;;;;;;16.77;64.34;101877.34;5113258;28;20028;-36
2023/06/15 03:05:11;;;;;;;4.15;2.65;;;;;;;16.50;66.65;101867.03;5112928;28;19911;-36
2023/06/15 03:07:36;;;;;;;3.60;2.70;;;;;;;16.55;67.09;101872.56;5112557;28;20063;-36
2023/06/15 03:10:01;;;;;;;;;;;;;;;16.72;63.96;101878.91;5113575;28;20154;-36
2023/06/15 03:12:27;;;;;;;4.57;2.60;;;;;;;16.52;65.15;101867.59;5113000;28;20279;-36
2023/06/15 03:14:52;;;;;;;;;;;;;;;16.63;63.95;101871.31;5113404;28;20027;-36
2023/06/15 03:17:18;;;;;;;3.15;2.50;;;;;;;16.49;66.82;101876.25;5112765;28;20422;-36
2023/06/15 03:19:46;;;;;;;;;;;;;;;16.60;64.42;101874.56;5112827;28;20391;-36
2023/06/15 03:22:12;;;;;;;4.78;2.60;;;;;;;16.33;67.25;101877.88;5113010;28;20330;-36
2023/06/15 03:24:39;;;;;;;4.15;2.70;;;;;;;16.37;67.47;101887.25;5112421;28;20050;-36
2023/06/15 03:27:06;;;;;;;5.55;2.67;;;;;;;16.22;67.92;101876.88;5112958;28;20061;-36
2023/06/15 03:29:36;;;;;;;2.53;2.30;;;;;;;16.32;68.00;101883.59;5112660;28;20028;-36
2023/06/15 03:32:06;;;;;;;3.45;2.67;;;;;;;16.26;67.76;101876.41;5112621;28;20126;-36
2023/06/15 03:34:31;;;;;;;4.22;2.60;;;;;;;16.35;67.94;101877.66;5112909;28;20075;-36
2023/06/15 03:36:57;;;;;;;;;;;;;;;16.51;65.45;101885.06;5113562;28;20059;-36
2023/06/15 03:39:22;;;;;;;5.10;2.83;;;;;;;16.27;68.45;101875.31;5112137;28;19931;-36
2023/06/15 03:41:48;;;;;;;;;;;;;;;16.48;65.30;101883.63;5112709;28;20333;-36
2023/06/15 03:44:13;;;;;;;3.88;2.72;;;;;;;16.36;67.97;101880.13;5112680;28;19916;-36
2023/06/15 03:46:41;;;;;;;;;;;;;;;16.45;65.08;101875.94;5115360;28;20059;-36
2023/06/15 03:49:06;;;;;;;4.25;2.55;;;;;;;16.27;68.47;101881.59;5116530;28;20293;-36
2023/06/15 03:51:31;;;;;;;;;;;;;;;16.45;65.32;101877.84;5117070;28;20024;-36
2023/06/15 03:53:56;;;;;;;3.40;2.90;;;;;;;16.18;67.88;101867.50;5116367;28;20343;-36
2023/06/15 03:56:22;;;;;;;;;;;;;;;16.36;66.04;101876.59;5116640;28;20522;-36
2023/06/15 03:58:47;;;;;;;3.33;2.72;;;;;;;16.21;68.88;101880.69;5116018;28;19930;-36
2023/06/15 04:01:12;;;;;;;;;;;;;;;16.36;65.78;101882.88;5116609;28;20027;-36
2023/06/15 04:03:39;;;;;;;3.90;2.78;;;;;;;16.14;68.89;101877.25;5115831;28;20006;-36
2023/06/15 04:06:05;;;;;;;8.85;3.75;;;;;;;16.24;69.22;101879.34;5116241;28;20051;-36
2023/06/15 04:08:37;;;;;;;4.05;2.80;;;;;;;16.26;68.86;101888.13;5116632;27;20024;-36
2023/06/15 04:11:02;;;;;;;4.82;3.08;;;;;;;16.27;69.36;101887.06;5116228;27;20044;-36
2023/06/15 04:13:28;;;;;;;;;;;;;;;16.45;66.86;101888.78;5116413;28;20027;-36
2023/06/15 04:15:53;;;;;;;3.97;2.75;;;;;;;16.39;69.26;101890.56;5116268;28;19912;-36
2023/06/15 04:18:19;;;;;;;;;;;;;;;16.47;67.23;101892.91;5115993;28;20117;-36
2023/06/15 04:20:44;;;;;;;4.22;2.80;;;;;;;16.33;69.38;101888.81;5115478;28;19968;-36
2023/06/15 04:23:10;;;;;;;;;;;;;;;16.44;67.46;101887.91;5116161;28;20093;-36
2023/06/15 04:25:37;;;;;;;5.85;2.90;;;;;;;16.29;70.04;101890.34;5115635;28;20351;-36
2023/06/15 04:28:03;;;;;;;4.15;3.58;;;;;;;16.27;70.23;101891.69;5115302;28;20039;-36
2023/06/15 04:30:29;;;;;;;4.43;3.10;;;;;;;16.31;70.57;101896.41;5115977;28;20447;-36
2023/06/15 04:32:59;;;;;;;4.50;3.30;;;;;;;16.37;70.30;101891.88;5115892;28;20478;-36
2023/06/15 04:35:31;;;;;;;4.00;2.83;;;;;;;16.54;69.66;101897.38;5115439;28;20424;-36
2023/06/15 04:38:00;;;;;;;6.15;3.00;;;;;;;16.67;69.19;101899.81;5115673;28;20020;-36
2023/06/15 04:40:26;;;;;;;6.88;2.70;;;;;;;16.63;70.09;101899.47;5115342;28;20031;-36
2023/06/15 04:42:53;;;;;;;;;;;;;;;16.89;67.21;101903.50;5116088;28;20024;-36
2023/06/15 04:45:18;;;;;;;8.30;3.35;;;;;;;16.87;69.04;101908.38;5115619;28;19907;-36
2023/06/15 04:47:43;;;;;;;3.55;2.80;;;;;;;16.93;69.07;101909.28;5115510;28;20477;-36
2023/06/15 04:50:13;;;;;;;;;;;;;;;17.20;67.45;101917.66;5115792;28;20086;-36
2023/06/15 04:52:41;;;;;;;5.97;2.80;;;;;;;17.24;68.55;101908.72;5114918;28;19937;-36
2023/06/15 04:55:07;;;;;;;5.20;2.97;;;;;;;17.26;67.37;101916.66;5115640;28;20027;-36
2023/06/15 04:57:33;;;;;;;7.30;3.28;;;;;;;17.35;68.19;101908.88;5114906;28;20133;-36
2023/06/15 04:59:59;;;;;;;3.75;2.90;;;;;;;17.34;67.32;101908.06;5115167;28;20130;-37
2023/06/15 05:02:24;;;;;;;6.10;3.63;;;;;;;17.57;66.14;101915.22;5115111;28;20024;-36
2023/06/15 05:04:50;;;;;;;;;;;;;;;17.75;66.17;101920.41;5115297;28;20020;-36
2023/06/15 05:07:15;;;;;;;5.38;3.55;;;;;;;17.62;66.43;101912.56;5114890;27;19912;-36
2023/06/15 05:09:40;;;;;;;;;;;;;;;17.90;65.87;101921.72;5115383;28;20035;-36
2023/06/15 05:12:06;;;;;;;5.40;3.55;;;;;;;17.69;66.15;101915.94;5114757;28;19967;-36
2023/06/15 05:14:31;;;;;;;7.75;4.00;;;;;;;17.76;66.25;101913.03;5114714;28;20103;-36
2023/06/15 05:16:57;;;;;;;;;;;;;;;18.05;65.52;101924.63;5115588;27;20039;-36
2023/06/15 05:19:22;;;;;;;8.68;3.83;;;;;;;18.00;65.87;101919.09;5114187;28;19916;-36
2023/06/15 05:21:50;;;;;;;4.40;3.25;;;;;;;18.15;66.11;101926.66;5114521;28;20051;-36
2023/06/15 05:24:15;;;;;;;7.38;4.22;;;;;;;17.95;65.86;101930.81;5114902;28;20066;-36
2023/06/15 05:26:41;;;;;;;8.57;4.20;;;;;;;17.98;64.99;101915.81;5114461;28;20169;-37
2023/06/15 05:29:06;;;;;;;;;;;;;;;18.26;65.00;101931.19;5115096;28;20028;-36
2023/06/15 05:31:32;;;;;;;6.30;4.72;;;;;;;18.06;65.91;101923.56;5114333;28;19911;-36
2023/06/15 05:33:57;;;;;;;6.85;4.60;;;;;;;18.00;64.88;101919.91;5114727;28;20027;-36
2023/06/15 05:36:30;;;;;;;6.40;4.10;;;;;;;18.19;66.53;101925.06;5114513;28;20032;-36
2023/06/15 05:38:55;;;;;;;6.72;4.40;;;;;;;18.11;66.01;101926.38;5114815;28;20072;-37
2023/06/15 05:41:21;;;;;;;6.88;4.22;;;;;;;18.23;66.11;101939.91;5113859;28;20107;-37
2023/06/15 05:43:46;;;;;;;;;;;;;;;18.43;64.88;101931.94;5114213;28;20046;-36
2023/06/15 05:46:11;;;;;;;7.03;4.47;;;;;;;18.42;65.24;101930.28;5114162;28;19912;-36
2023/06/15 05:48:37;;;;;;;5.78;4.43;;;;;;;18.44;65.32;101932.75;5113692;28;20031;-36
2023/06/15 05:51:02;;;;;;;9.05;4.45;;;;;;;18.55;65.43;101933.72;5114043;27;20038;-36
2023/06/15 05:53:27;;;;;;;;;;;;;;;18.64;64.89;101937.63;5114596;28;20062;-37
2023/06/15 05:55:53;;;;;;;13.02;4.68;;;;;;;18.66;65.31;101939.03;5114103;28;19919;-36
2023/06/15 05:58:18;;;;;;;5.50;4.38;;;;;;;18.76;65.09;101933.69;5113839;28;20096;-36
2023/06/15 06:00:43;;;;;;;6.93;5.18;;;;;;;18.86;65.34;101938.44;5114158;28;20051;-36
2023/06/15 06:03:09;;;;;;;9.27;4.90;;;;;;;19.00;64.91;101936.91;5113739;28;20035;-37
2023/06/15 06:05:34;;;;;;;12.35;5.20;;;;;;;19.21;63.66;101937.91;5113674;28;20046;-36
2023/06/15 06:08:00;;;;;;;6.90;4.68;;;;;;;19.36;63.71;101939.91;5113405;28;20020;-36
2023/06/15 06:10:25;;;;;;;10.35;5.07;;;;;;;19.40;62.91;101932.00;5113263;28;20032;-36
2023/06/15 06:12:52;;;;;;;8.02;4.35;;;;;;;19.61;61.58;101931.06;5113407;28;20030;-36
2023/06/15 06:15:17;;;;;;;11.38;4.90;;;;;;;19.61;61.43;101931.06;5113532;28;20023;-36
2023/06/15 06:17:43;;;;;;;8.15;5.22;;;;;;;19.55;61.30;101921.94;5113512;28;20156;-36
2023/06/15 06:20:09;;;;;;;8.45;5.20;;;;;;;19.68;62.10;101928.94;5113628;28;20031;-36
2023/06/15 06:22:35;;;;;;;6.35;5.18;;;;;;;19.59;60.36;101926.91;5113592;28;20034;-36
2023/06/15 06:25:00;;;;;;;11.45;5.38;;;;;;;19.71;60.81;101938.53;5113295;28;20032;-37
2023/06/15 06:27:25;;;;;;;12.23;5.88;;;;;;;19.75;61.25;101934.16;5113444;28;20028;-36
2023/06/15 06:29:51;;;;;;;8.77;4.80;;;;;;;19.91;61.35;101932.31;5113223;28;20024;-36
2023/06/15 06:32:17;;;;;;;9.82;4.72;;;;;;;20.03;62.82;101932.94;5113420;28;20023;-37
2023/06/15 06:34:43;;;;;;;8.40;5.20;;;;;;;20.17;61.74;101928.59;5113167;28;20047;-36
2023/06/15 06:37:08;;;;;;;9.43;5.28;;;;;;;20.21;60.12;101934.41;5113629;28;20040;-36
2023/06/15 06:39:33;;;;;;;7.22;4.70;;;;;;;20.33;60.91;101943.22;5113250;28;20161;-36
2023/06/15 06:41:59;;;;;;;6.35;5.15;;;;;;;20.20;59.18;101935.47;5113128;28;20482;-36
2023/06/15 06:44:24;;;;;;;7.10;5.13;;;;;;;20.22;60.17;101928.63;5112706;28;20023;-36
2023/06/15 06:46:50;;;;;;;8.23;4.43;;;;;;;20.43;60.29;101934.16;5113716;28;20079;-37
2023/06/15 06:49:15;;;;;;;7.50;4.82;;;;;;;20.47;59.30;101935.31;5112952;28;20383;-36
2023/06/15 06:51:41;;;;;;;9.57;4.82;;;;;;;20.44;59.43;101917.41;5112986;28;20205;-36
2023/06/15 06:54:06;;;;;;;7.35;5.10;;;;;;;20.65;59.43;101934.81;5112989;28;20028;-37
2023/06/15 06:56:32;;;;;;;11.18;4.60;;;;;;;20.76;59.24;101936.47;5112952;28;20035;-37
2023/06/15 06:58:57;;;;;;;7.93;4.93;;;;;;;20.96;58.95;101934.84;5112610;28;20115;-37
2023/06/15 07:01:23;;;;;;;6.80;4.47;;;;;;;21.10;57.47;101935.94;5112677;28;20047;-37
2023/06/15 07:03:48;;;;;;;10.45;4.55;;;;;;;21.26;56.54;101937.56;5112831;28;20035;-37
2023/06/15 07:06:14;;;;;;;6.13;3.95;;;;;;;21.22;56.84;101916.41;5113149;28;20527;-36
2023/06/15 07:08:40;;;;;;;5.90;4.18;;;;;;;21.31;55.71;101932.09;5112623;28;20473;-36
2023/06/15 07:11:05;;;;;;;7.07;4.72;;;;;;;21.42;55.22;101934.84;5113252;28;20102;-37
2023/06/15 07:13:30;;;;;;;6.30;4.50;;;;;;;21.47;54.06;101938.44;5112871;28;20464;-36
2023/06/15 07:15:57;;;;;;;7.18;4.40;;;;;;;21.60;53.33;101929.56;5113056;28;20062;-36
2023/06/15 07:18:23;;;;;;;7.55;4.35;;;;;;;21.63;54.25;101928.22;5112668;28;20039;-37
2023/06/15 07:20:53;;;;;;;5.65;4.40;;;;;;;21.75;54.59;101936.16;5114009;28;20034;-36
2023/06/15 07:23:20;;;;;;;9.45;4.70;;;;;;;21.83;53.46;101938.34;5116882;28;20107;-36
2023/06/15 07:25:46;;;;;;;5.20;4.50;;;;;;;21.91;52.79;101934.16;5116535;28;20034;-36
2023/06/15 07:28:11;;;;;;;10.15;4.30;;;;;;;22.02;52.72;101935.78;5117069;28;20028;-36
2023/06/15 07:30:36;;;;;;;7.28;4.40;;;;;;;21.97;50.23;101914.59;5116998;28;20058;-37
2023/06/15 07:33:02;;;;;;;5.38;3.60;;;;;;;22.17;49.49;101930.25;5116380;28;20024;-37
2023/06/15 07:35:27;;;;;;;7.07;3.70;;;;;;;22.21;50.00;101925.81;5116666;28;20027;-37
2023/06/15 07:37:52;;;;;;;7.82;4.05;;;;;;;22.31;49.65;101930.44;5116579;28;20027;-37
2023/06/15 07:40:18;;;;;;;4.97;3.55;;;;;;;22.32;50.28;101932.91;5116890;28;20084;-36
2023/06/15 07:42:44;;;;;;;7.88;3.30;;;;;;;22.41;47.84;101933.16;5116565;28;20024;-36
2023/06/15 07:45:10;;;;;;;7.55;3.50;;;;;;;22.38;47.11;101921.88;5116931;28;20027;-37
2023/06/15 07:47:35;;;;;;;7.32;3.33;;;;;;;22.54;47.94;101927.00;5117142;28;20053;-36
2023/06/15 07:50:00;;;;;;;7.30;3.20;;;;;;;22.72;47.56;101933.75;5116126;28;20093;-37
2023/06/15 07:52:26;;;;;;;9.93;3.60;;;;;;;22.58;46.36;101921.72;5116129;28;20055;-37
2023/06/15 07:54:51;;;;;;;9.00;3.67;;;;;;;22.79;47.29;101923.25;5116789;28;20478;-36
2023/06/15 07:57:16;;;;;;;6.32;2.80;;;;;;;22.98;46.58;101926.16;5116087;28;20495;-37
2023/06/15 07:59:42;;;;;;;7.05;2.67;;;;;;;22.84;45.96;101922.41;5116113;27;20453;-37
2023/06/15 08:02:08;;;;;;;6.80;3.15;;;;;;;23.03;45.45;101933.56;5116507;28;20087;-37
2023/06/15 08:04:33;;;;;;;6.65;2.72;;;;;;;23.12;46.05;101931.81;5116772;28;20059;-37
2023/06/15 08:06:58;;;;;;;7.25;3.00;;;;;;;23.18;45.08;101932.59;5116051;28;20450;-37
2023/06/15 08:09:24;;;;;;;7.43;3.20;;;;;;;23.10;44.54;101923.84;5116450;28;20047;-37
2023/06/15 08:11:50;;;;;;;5.78;2.65;;;;;;;23.31;44.81;101927.25;5115954;28;20089;-37
2023/06/15 08:14:16;;;;;;;7.32;3.47;;;;;;;23.23;43.86;101927.03;5115592;28;20053;-37
2023/06/15 08:16:41;;;;;;;7.28;2.47;;;;;;;23.21;42.93;101930.09;5115892;28;20027;-37
2023/06/15 08:19:06;;;;;;;4.18;2.35;;;;;;;23.43;42.53;101935.16;5115772;27;20046;-37
2023/06/15 08:21:32;;;;;;;7.20;2.42;;;;;;;23.54;43.57;101930.34;5116555;28;20034;-37
2023/06/15 08:23:58;;;;;;;5.50;2.33;;;;;;;23.58;41.78;101920.34;5115409;28;20529;-37
2023/06/15 08:26:23;;;;;;;5.75;3.15;;;;;;;23.73;42.09;101927.69;5116210;27;20077;-37
2023/06/15 08:28:48;;;;;;;5.25;2.97;;;;;;;23.74;42.17;101929.31;5115693;28;20032;-37
2023/06/15 08:31:14;;;;;;;5.85;2.70;;;;;;;23.85;42.56;101931.66;5115835;28;20103;-37
2023/06/15 08:33:39;;;;;;;7.50;2.92;;;;;;;23.87;40.98;101926.69;5115080;28;20026;-37
2023/06/15 08:36:05;;;;;;;5.40;2.78;;;;;;;23.84;40.42;101930.03;5116100;28;20175;-37
2023/06/15 08:38:30;;;;;;;4.50;2.65;;;;;;;23.74;40.07;101930.13;5115468;28;20475;-37
2023/06/15 08:40:56;;;;;;;4.00;2.72;;;;;;;23.69;39.73;101935.72;5115040;28;20035;-37
2023/06/15 08:43:24;;;;;;;5.22;2.17;;;;;;;23.77;39.85;101926.81;5115118;28;20028;-37
2023/06/15 08:45:54;;;;;;;9.05;2.63;;;;;;;23.72;39.62;101926.88;5115704;28;20031;-37
2023/06/15 08:48:21;;;;;;;6.15;2.40;;;;;;;23.87;39.69;101920.34;5115536;28;20430;-37
2023/06/15 08:50:47;;;;;;;3.25;2.10;;;;;;;24.00;38.54;101919.59;5114936;28;20506;-36
2023/06/15 08:53:13;;;;;;;6.00;2.10;;;;;;;24.11;38.68;101906.50;5115863;28;20094;-37
2023/06/15 08:55:39;;;;;;;4.82;2.15;;;;;;;24.61;38.71;101921.56;5115392;28;20028;-37
2023/06/15 08:58:05;;;;;;;5.07;2.25;;;;;;;24.63;37.23;101916.53;5115212;28;20483;-37
2023/06/15 09:00:31;;;;;;;5.80;2.20;;;;;;;24.86;36.74;101913.97;5115370;28;20092;-37
2023/06/15 09:03:00;;;;;;;4.55;1.88;;;;;;;24.96;36.98;101918.53;5115180;28;20042;-37
2023/06/15 09:05:28;;;;;;;6.32;2.40;;;;;;;24.99;36.56;101917.94;5115662;28;20325;-37
2023/06/15 09:07:54;;;;;;;6.20;1.90;;;;;;;25.08;37.56;101927.19;5114535;28;20019;-37
2023/06/15 09:10:21;;;;;;;5.07;2.13;;;;;;;25.15;37.02;101913.78;5115258;28;20129;-37
2023/06/15 09:12:55;;;;;;;4.95;2.08;;;;;;;25.12;37.77;101911.63;5114489;28;20456;-37
2023/06/15 09:15:27;;;;;;;4.13;2.20;;;;;;;25.47;36.88;101912.09;5114747;28;20073;-37
2023/06/15 09:18:01;;;;;;;4.90;2.20;;;;;;;25.38;36.73;101909.22;5115556;28;20343;-37
2023/06/15 09:20:30;;;;;;;4.30;2.00;;;;;;;25.34;36.48;101917.31;5114380;28;20027;-37
2023/06/15 09:22:59;;;;;;;4.30;2.20;;;;;;;25.38;36.99;101901.75;5114568;28;20027;-37
2023/06/15 09:25:25;;;;;;;4.32;2.13;;;;;;;25.42;35.83;101911.06;5115231;28;20103;-37
2023/06/15 09:27:57;;;;;;;4.38;2.13;;;;;;;25.53;36.60;101916.44;5114757;28;20020;-37
2023/06/15 09:30:32;;;;;;;3.22;1.80;;;;;;;25.62;35.94;101909.03;5115126;28;20358;-37
2023/06/15 09:33:18;;;;;;;3.85;1.85;;;;;;;25.84;34.96;101903.63;5114738;28;20031;-37
2023/06/15 09:36:03;;;;;;;4.35;1.98;;;;;;;26.25;34.85;101913.00;5115223;28;20443;-37
2023/06/15 09:38:44;;;;;;;5.35;1.85;;;;;;;25.81;35.30;101908.97;5115111;28;20019;-37
2023/06/15 09:41:10;;;;;;;4.25;1.83;;;;;;;25.58;35.31;101919.09;5114752;28;20019;-37
2023/06/15 09:43:40;;;;;;;4.43;1.98;;;;;;;25.70;34.71;101911.09;5113125;28;20031;-37
2023/06/15 09:46:10;;;;;;;4.68;2.38;;;;;;;25.62;34.80;101909.88;5114677;28;20027;-37
2023/06/15 09:48:40;;;;;;;5.07;2.05;;;;;;;25.82;34.73;101900.38;5114639;28;20028;-37
2023/06/15 09:51:06;;;;;;;5.72;1.70;;;;;;;25.77;34.82;101900.47;5114070;28;20034;-37
2023/06/15 09:53:32;;;;;;;8.05;2.40;;;;;;;25.69;34.80;101904.72;5114477;28;20027;-37
2023/06/15 09:55:58;;;;;;;4.40;2.10;;;;;;;25.57;35.04;101906.34;5114409;28;20034;-37
2023/06/15 09:58:23;;;;;;;4.57;1.98;;;;;;;25.74;34.70;101898.28;5113733;28;20053;-37
2023/06/15 10:00:49;;;;;;;5.90;2.00;;;;;;;25.87;34.76;101904.97;5113966;28;20134;-37
2023/06/15 10:03:19;;;;;;;5.22;1.90;;;;;;;25.70;34.89;101908.31;5113960;28;20027;-37
2023/06/15 10:05:47;;;;;;;7.25;2.42;;;;;;;25.96;35.06;101910.59;5113949;28;20076;-37
2023/06/15 10:08:16;;;;;;;5.40;2.17;;;;;;;26.18;35.20;101894.03;5113491;28;20103;-37
2023/06/15 10:10:43;;;;;;;5.40;2.08;;;;;;;26.37;34.56;101911.34;5113747;28;20054;-37
2023/06/15 10:13:15;;;;;;;3.90;2.28;;;;;;;26.32;34.66;101913.44;5113540;28;20452;-37
2023/06/15 10:15:46;;;;;;;4.25;2.28;;;;;;;26.40;34.02;101912.66;5114094;28;20028;-37
2023/06/15 10:18:13;;;;;;;3.50;2.30;;;;;;;26.39;33.41;101902.72;5113760;28;20027;-37
2023/06/15 10:20:39;;;;;;;2.92;1.98;;;;;;;26.77;32.75;101883.81;5113982;28;20063;-37
2023/06/15 10:23:08;;;;;;;6.50;2.20;;;;;;;27.14;33.82;101904.00;5113378;28;20486;-37
2023/06/15 10:25:35;;;;;;;6.30;2.47;;;;;;;26.94;32.00;101895.03;5113792;28;20119;-37
2023/06/15 10:28:09;;;;;;;5.43;2.10;;;;;;;27.00;32.55;101898.50;5113430;28;20135;-37
2023/06/15 10:30:42;;;;;;;2.67;2.10;;;;;;;27.26;31.93;101895.88;5113745;28;20050;-37
2023/06/15 10:33:13;;;;;;;3.63;2.00;;;;;;;27.15;31.77;101900.09;5113606;28;20051;-37
2023/06/15 10:35:50;;;;;;;4.68;2.00;;;;;;;27.17;31.76;101904.16;5113377;28;20034;-37
2023/06/15 10:38:19;;;;;;;6.30;2.20;;;;;;;27.05;31.82;101901.13;5113025;28;20020;-37
2023/06/15 10:40:49;;;;;;;5.90;2.20;;;;;;;27.32;33.24;101889.03;5113152;28;20028;-37
2023/06/15 10:43:18;;;;;;;3.47;1.88;;;;;;;27.62;32.81;101887.41;5113164;28;20023;-37
2023/06/15 10:45:44;;;;;;;5.45;2.25;;;;;;;27.89;31.82;101896.66;5113323;28;20397;-37
2023/06/15 10:48:28;;;;;;;4.47;1.92;;;;;;;28.40;31.25;101898.75;5113144;27;20028;-37
2023/06/15 10:51:08;;;;;;;4.70;1.95;;;;;;;28.41;30.82;101889.25;5113934;28;20043;-37
2023/06/15 10:53:39;;;;;;;3.72;2.03;;;;;;;27.97;30.67;101893.91;5113033;28;20051;-37
2023/06/15 10:56:12;;;;;;;2.65;1.90;;;;;;;27.74;30.93;101895.13;5112556;28;20028;-37
2023/06/15 10:58:53;;;;;;;3.83;2.40;;;;;;;27.25;31.60;101899.00;5113243;28;20509;-37
2023/06/15 11:01:22;;;;;;;4.90;2.20;;;;;;;27.00;32.14;101901.25;5113652;28;20048;-37
2023/06/15 11:03:47;;;;;;;4.95;2.13;;;;;;;26.61;31.92;101900.00;5112791;28;20134;-37
2023/06/15 11:06:15;;;;;;;5.05;2.60;;;;;;;26.81;33.24;101901.47;5112553;28;20531;-37
2023/06/15 11:08:46;;;;;;;5.22;2.17;;;;;;;26.88;32.68;101898.22;5112809;28;20028;-37
2023/06/15 11:11:13;;;;;;;5.38;2.10;;;;;;;26.82;32.63;101896.72;5112860;28;20043;-37
2023/06/15 11:13:55;;;;;;;3.83;2.00;;;;;;;26.71;32.75;101907.25;5112711;28;20060;-37
2023/06/15 11:16:41;;;;;;;5.20;2.30;;;;;;;26.50;32.11;101901.41;5112918;28;20066;-37
2023/06/15 11:19:12;;;;;;;5.43;2.30;;;;;;;26.38;32.73;101898.31;5111756;28;20490;-37
2023/06/15 11:21:47;;;;;;;4.35;2.20;;;;;;;26.29;32.59;101898.22;5112777;28;20032;-37
2023/06/15 11:24:13;;;;;;;4.13;2.10;;;;;;;26.95;31.98;101896.66;5112880;28;20088;-37
2023/06/15 11:26:43;;;;;;;3.88;2.00;;;;;;;27.13;31.08;101902.34;5113408;28;20055;-37
2023/06/15 11:29:12;;;;;;;7.30;2.35;;;;;;;27.53;31.47;101899.63;5112342;28;20058;-37
2023/06/15 11:31:40;;;;;;;17.48;2.80;;;;;;;27.80;31.34;101885.50;5113366;28;20102;-37
2023/06/15 11:34:08;;;;;;;3.78;1.75;;;;;;;28.02;31.35;101878.22;5112627;28;20049;-37